^^
Datos históricos de la estación: Murcia-Puente Tocinos
Diario Informe para Noviembre 27, 2021 Unidades:  Métrico    Ingés   Ambas
Diario Semanal Mensual Anual
  Máxima: Mínima: Promedio:
Temperatura: 17.6 °C 6.5 °C 11.2 °C
Punto de rocio: 3.2 °C -1 °C 1.6 °C
Humedad: 75% 33% 53%
Velocidad viento: 37.8km/h 0km/h 11.4km/h
Racha viento: 62.9km/h - -
Viento- - SO
Presión: 1009.0 hPa 1002.4 hPa -
Precipitación: 0.0 mm    
 
 
Tabla de datos para Noviembre 27, 2021
Hora Temperatura Punto de rocio Presión Viento Velocidad viento Racha viento Humedad Intensidad lluvia(por hora) Nubes
00:04 11.2 °C 1.9 °C 1008.8 hPa SSO 7.6 km/h 14.8 km/h 53% 0.0 mm
00:09 11.2 °C 1.9 °C 1008.8 hPa SO 7.8 km/h 13.7 km/h 53% 0.0 mm
00:14 11.2 °C 1.9 °C 1008.8 hPa SO 8.4 km/h 14.8 km/h 53% 0.0 mm
00:19 11.2 °C 1.9 °C 1008.8 hPa OSO 8.1 km/h 12.2 km/h 53% 0.0 mm
00:24 11.2 °C 1.9 °C 1008.8 hPa SO 7.6 km/h 13.7 km/h 53% 0.0 mm
00:29 11.2 °C 1.9 °C 1008.7 hPa SSO 7.9 km/h 15.6 km/h 53% 0.0 mm
00:34 11.2 °C 1.9 °C 1008.7 hPa Oeste 8.4 km/h 17.2 km/h 53% 0.0 mm
00:39 11.1 °C 1.9 °C 1008.9 hPa OSO 7.8 km/h 11.9 km/h 53.2% 0.0 mm
00:44 10.9 °C 2 °C 1008.9 hPa SO 6.9 km/h 16.4 km/h 54% 0.0 mm
00:49 10.8 °C 1.8 °C 1008.9 hPa SO 8 km/h 16.7 km/h 54% 0.0 mm
00:54 10.8 °C 2 °C 1009.0 hPa SSO 10 km/h 13 km/h 54.6% 0.0 mm
00:59 10.7 °C 2 °C 1009.0 hPa SSO 9.4 km/h 13 km/h 55% 0.0 mm
01:04 10.5 °C 2.1 °C 1009.0 hPa SSO 8.4 km/h 13.7 km/h 56% 0.0 mm
01:09 10.3 °C 2.1 °C 1009.0 hPa Sur 8.8 km/h 13.7 km/h 56.4% 0.0 mm
01:14 10.2 °C 2.1 °C 1008.9 hPa SSO 9.5 km/h 14.8 km/h 57% 0.0 mm
01:19 10.1 °C 2 °C 1008.9 hPa SSO 9.7 km/h 19 km/h 57% 0.0 mm
01:24 10.2 °C 1.9 °C 1008.9 hPa SO 10 km/h 14.8 km/h 56.4% 0.0 mm
01:29 10.3 °C 1.9 °C 1008.7 hPa SO 10 km/h 16.7 km/h 56% 0.0 mm
01:34 10.4 °C 1.8 °C 1008.7 hPa SO 10 km/h 22.2 km/h 55.1% 0.0 mm
01:39 10.5 °C 1.8 °C 1008.7 hPa SO 10 km/h 15.6 km/h 55% 0.0 mm
01:44 10.4 °C 1.7 °C 1008.5 hPa SO 10 km/h 17.2 km/h 55% 0.0 mm
01:49 10.4 °C 1.7 °C 1008.5 hPa SO 9.8 km/h 17.2 km/h 55% 0.0 mm
01:54 10.4 °C 1.7 °C 1008.5 hPa SO 9.5 km/h 18.5 km/h 55% 0.0 mm
01:59 10.5 °C 1.6 °C 1008.4 hPa SO 9.7 km/h 15.6 km/h 54.1% 0.0 mm
02:04 10.5 °C 1.6 °C 1008.4 hPa SO 10 km/h 16.7 km/h 54% 0.0 mm
02:09 10.5 °C 1.6 °C 1008.4 hPa SO 10 km/h 14.8 km/h 54% 0.0 mm
02:14 10.4 °C 1.5 °C 1008.3 hPa SO 10 km/h 13.7 km/h 54% 0.0 mm
02:19 10.4 °C 1.5 °C 1008.3 hPa SO 9.8 km/h 16.7 km/h 54% 0.0 mm
02:24 10.5 °C 1.5 °C 1008.3 hPa SO 9.5 km/h 16.7 km/h 54% 0.0 mm
02:29 10.5 °C 1.6 °C 1008.1 hPa SO 9.7 km/h 15.6 km/h 54% 0.0 mm
02:34 10.4 °C 1.5 °C 1008.1 hPa SO 10 km/h 20.4 km/h 54% 0.0 mm
02:39 10.4 °C 1.5 °C 1008.1 hPa OSO 10.1 km/h 17.2 km/h 54% 0.0 mm
02:44 10.3 °C 1.4 °C 1008.0 hPa SO 10.3 km/h 16.7 km/h 54% 0.0 mm
02:49 10.3 °C 1.4 °C 1008.0 hPa SO 10.2 km/h 14.8 km/h 54% 0.0 mm
02:54 10.3 °C 1.4 °C 1008.0 hPa OSO 10 km/h 13.7 km/h 54% 0.0 mm
02:59 10.3 °C 1.4 °C 1007.9 hPa OSO 9.8 km/h 16.7 km/h 54% 0.0 mm
03:04 10.2 °C 1.3 °C 1007.9 hPa Oeste 9.5 km/h 16.7 km/h 54% 0.0 mm
03:09 10.2 °C 1.2 °C 1007.9 hPa OSO 9.2 km/h 13.7 km/h 53.8% 0.0 mm
03:14 10.2 °C 1.1 °C 1007.8 hPa OSO 8.7 km/h 14.8 km/h 53% 0.0 mm
03:19 10.2 °C 1 °C 1007.8 hPa OSO 8.7 km/h 14.8 km/h 53% 0.0 mm
03:24 10.1 °C 0.9 °C 1007.8 hPa OSO 8.7 km/h 16.4 km/h 53% 0.0 mm
03:29 10.1 °C 0.9 °C 1007.7 hPa OSO 8.6 km/h 16.7 km/h 53% 0.0 mm
03:34 10.1 °C 1.2 °C 1007.7 hPa OSO 8.4 km/h 16.7 km/h 53.8% 0.0 mm
03:39 10 °C 1.1 °C 1007.7 hPa OSO 8.5 km/h 14.8 km/h 54% 0.0 mm
03:44 9.8 °C 1 °C 1007.6 hPa Oeste 8.7 km/h 11.9 km/h 54.3% 0.0 mm
03:49 9.8 °C 1.2 °C 1007.6 hPa OSO 7.7 km/h 11.1 km/h 55% 0.0 mm
03:54 9.8 °C 1.2 °C 1007.6 hPa SSO 5.8 km/h 11.1 km/h 55% 0.0 mm
03:59 9.8 °C 1.2 °C 1007.4 hPa Sur 5.4 km/h 7.4 km/h 55% 0.0 mm
04:04 9.7 °C 1.3 °C 1007.4 hPa ENE 4.7 km/h 7.6 km/h 55.7% 0.0 mm
04:09 9.3 °C 1.3 °C 1007.4 hPa ENE 4.1 km/h 7.4 km/h 57.5% 0.0 mm
04:14 9 °C 1.4 °C 1007.2 hPa ESE 3.2 km/h 8.4 km/h 59% 0.0 mm
04:19 8.7 °C 1.5 °C 1007.2 hPa SE 3.7 km/h 8.4 km/h 60.5% 0.0 mm
04:24 8.5 °C 1.5 °C 1007.2 hPa Sur 4.7 km/h 13 km/h 61.4% 0.0 mm
04:29 8.5 °C 1.6 °C 1007.1 hPa SSO 6 km/h 13.7 km/h 62% 0.0 mm
04:34 8.6 °C 1.5 °C 1007.1 hPa SSO 8.4 km/h 14 km/h 61.1% 0.0 mm
04:39 8.6 °C 1.5 °C 1007.1 hPa SSO 9 km/h 18.5 km/h 61.2% 0.0 mm
04:44 8.6 °C 1.7 °C 1007.0 hPa SSO 10.3 km/h 17.2 km/h 62% 0.0 mm
04:49 8.4 °C 1.7 °C 1007.0 hPa SO 10.3 km/h 14.8 km/h 62.4% 0.0 mm
04:54 8.4 °C 1.8 °C 1007.0 hPa SO 10.3 km/h 13.7 km/h 63% 0.0 mm
04:59 8.3 °C 1.7 °C 1006.7 hPa SO 9.7 km/h 13 km/h 63% 0.0 mm
05:04 8.3 °C 1.9 °C 1006.7 hPa SO 8.7 km/h 13.7 km/h 64% 0.0 mm
05:09 8.2 °C 1.8 °C 1006.7 hPa OSO 8.6 km/h 13 km/h 64% 0.0 mm
05:14 8.2 °C 1.8 °C 1006.7 hPa OSO 8.4 km/h 11.1 km/h 64% 0.0 mm
05:19 8.2 °C 2 °C 1006.7 hPa Oeste 8.1 km/h 11.1 km/h 64.9% 0.0 mm
05:24 8.1 °C 1.9 °C 1006.7 hPa Oeste 7.6 km/h 9.3 km/h 65% 0.0 mm
05:29 8 °C 1.8 °C 1006.7 hPa OSO 7 km/h 9.5 km/h 65% 0.0 mm
05:34 7.9 °C 1.9 °C 1006.7 hPa OSO 5.8 km/h 7.4 km/h 65.9% 0.0 mm
05:39 7.8 °C 1.9 °C 1006.7 hPa SO 4.9 km/h 4.7 km/h 66% 0.0 mm
05:44 7.8 °C 1.8 °C 1006.7 hPa SSE 3.2 km/h 11.9 km/h 66% 0.0 mm
05:49 7.7 °C 1.9 °C 1006.7 hPa SE 3.8 km/h 9.3 km/h 67% 0.0 mm
05:54 7.6 °C 2 °C 1006.7 hPa SSE 5 km/h 7.6 km/h 68% 0.0 mm
05:59 7.5 °C 2 °C 1006.7 hPa Sur 5 km/h 7.4 km/h 68.5% 0.0 mm
06:04 7.4 °C 2 °C 1006.7 hPa Sur 5 km/h 9.5 km/h 69% 0.0 mm
06:09 7.3 °C 2 °C 1006.7 hPa SSE 5 km/h 9.5 km/h 69% 0.0 mm
06:14 7.2 °C 2 °C 1006.5 hPa SSE 5 km/h 9.5 km/h 69.6% 0.0 mm
06:19 7.2 °C 2.1 °C 1006.5 hPa SSE 5.5 km/h 9.3 km/h 70% 0.0 mm
06:24 7.1 °C 2.1 °C 1006.5 hPa SE 6.4 km/h 11.1 km/h 70.4% 0.0 mm
06:29 6.9 °C 2 °C 1006.4 hPa SE 6.8 km/h 13.7 km/h 71% 0.0 mm
06:34 6.7 °C 2 °C 1006.4 hPa SSE 7.6 km/h 13 km/h 72% 0.0 mm
06:39 6.6 °C 2.1 °C 1006.4 hPa SSE 7.8 km/h 12.2 km/h 72.9% 0.0 mm
06:44 6.5 °C 2 °C 1006.4 hPa Sur 8.4 km/h 13 km/h 73% 0.0 mm
06:49 6.5 °C 2 °C 1006.4 hPa SSO 7.9 km/h 8.4 km/h 73% 0.0 mm
06:54 6.6 °C 2.1 °C 1006.4 hPa SO 6.9 km/h 7.6 km/h 73% 0.0 mm
06:59 6.7 °C 2.2 °C 1006.3 hPa SO 6.2 km/h 7.4 km/h 73% 0.0 mm
07:04 6.7 °C 2.2 °C 1006.3 hPa SSO 5 km/h 7.6 km/h 73% 0.0 mm
07:09 6.8 °C 2.1 °C 1006.3 hPa Sur 5.3 km/h 7.6 km/h 72% 0.0 mm
07:14 6.9 °C 2.2 °C 1006.2 hPa SSE 5.8 km/h 9.3 km/h 72% 0.0 mm
07:19 6.9 °C 2.2 °C 1006.2 hPa SE 5.5 km/h 8.4 km/h 72% 0.0 mm
07:24 6.8 °C 2.2 °C 1006.2 hPa SSE 5 km/h 9.3 km/h 72.1% 0.0 mm
07:29 6.8 °C 2.3 °C 1006.1 hPa Sur 5.3 km/h 8.4 km/h 73% 0.0 mm
07:34 6.8 °C 2.3 °C 1006.1 hPa SO 5.8 km/h 7.4 km/h 73% 0.0 mm
07:39 6.8 °C 2.4 °C 1006.1 hPa SSO 5.4 km/h 7.4 km/h 73.4% 0.0 mm
07:44 6.8 °C 2.5 °C 1006.1 hPa SSO 4.7 km/h 7.4 km/h 74% 0.0 mm
07:49 6.8 °C 2.5 °C 1006.1 hPa SSO 4 km/h 3.7 km/h 74% 0.0 mm
07:54 6.7 °C 2.3 °C 1006.2 hPa SSO 2.9 km/h 2.3 km/h 73.2% 0.0 mm
07:59 6.6 °C 2.2 °C 1006.2 hPa SSO 1.8 km/h 5.8 km/h 73.7% 0.0 mm
08:04 6.5 °C 2.3 °C 1006.2 hPa Calm   5.8 km/h 74.8% 0.0 mm
08:09 6.5 °C 2.4 °C 1006.2 hPa Sur 1.7 km/h 7.6 km/h 75% 0.0 mm
08:14 6.7 °C 2.5 °C 1006.2 hPa Sur 4.7 km/h 11.1 km/h 74.9% 0.0 mm
08:19 6.8 °C 2.5 °C 1006.2 hPa SSE 5.7 km/h 10 km/h 74% 0.0 mm
08:24 6.8 °C 2.5 °C 1006.2 hPa Sur 7.6 km/h 11.9 km/h 74% 0.0 mm
08:29 6.9 °C 2.4 °C 1006.1 hPa Sur 7.2 km/h 7.6 km/h 73.3% 0.0 mm
08:34 6.9 °C 2.4 °C 1006.1 hPa SSO 6.4 km/h 8.4 km/h 73% 0.0 mm
08:39 7.1 °C 2.5 °C 1006.1 hPa SO 5.9 km/h 9.5 km/h 72.8% 0.0 mm
08:44 7.2 °C 2.5 °C 1006.1 hPa SSO 5 km/h 7.6 km/h 72% 0.0 mm
08:49 7.3 °C 2.5 °C 1006.1 hPa SSO 5 km/h 8.4 km/h 71.9% 0.0 mm
08:54 7.5 °C 2.5 °C 1006.2 hPa SSO 5 km/h 8.4 km/h 71% 0.0 mm
08:59 7.7 °C 2.7 °C 1006.2 hPa SO 4.9 km/h 7.4 km/h 71% 0.0 mm
09:04 7.8 °C 2.7 °C 1006.2 hPa Oeste 4.7 km/h 5.8 km/h 70% 0.0 mm
09:09 7.9 °C 2.7 °C 1006.2 hPa Oeste 4.4 km/h 7.4 km/h 69.7% 0.0 mm
09:14 7.9 °C 2.7 °C 1006.0 hPa ONO 3.9 km/h 7.4 km/h 69.6% 0.0 mm
09:19 7.9 °C 2.8 °C 1006.0 hPa ONO 4.1 km/h 7.4 km/h 70% 0.0 mm
09:24 8 °C 2.9 °C 1006.1 hPa SO 4.7 km/h 4.7 km/h 70.4% 0.0 mm
09:29 8.3 °C 3.1 °C 1006.1 hPa SSO 4 km/h 7.4 km/h 70% 0.0 mm
09:34 8.6 °C 3.1 °C 1006.1 hPa Sur 2.9 km/h 8.4 km/h 68.5% 0.0 mm
09:39 8.8 °C 2.9 °C 1006.1 hPa Sur 3.9 km/h 9.5 km/h 66.6% 0.0 mm
09:44 8.9 °C 2.9 °C 1006.0 hPa SSO 5.8 km/h 9.3 km/h 66% 0.0 mm
09:49 8.9 °C 2.9 °C 1006.0 hPa SO 5.5 km/h 7.6 km/h 66% 0.0 mm
09:54 9.1 °C 3 °C 1006.1 hPa SSO 5 km/h 7.6 km/h 65.7% 0.0 mm
09:59 9.3 °C 3 °C 1006.1 hPa Sur 4.9 km/h 9.5 km/h 64.8% 0.0 mm
10:04 9.6 °C 3 °C 1006.1 hPa SSO 4.7 km/h 9.5 km/h 63.6% 0.0 mm
10:09 9.9 °C 2.9 °C 1006.1 hPa SO 4.8 km/h 13 km/h 61.7% 0.0 mm
10:14 10.3 °C 2.6 °C 1006.1 hPa SO 5 km/h 13 km/h 59.1% 0.0 mm
10:19 10.7 °C 2.7 °C 1006.1 hPa SSO 5.9 km/h 12.2 km/h 57.9% 0.0 mm
10:24 10.9 °C 2.6 °C 1006.1 hPa SSO 7.6 km/h 14.8 km/h 56.6% 0.0 mm
10:29 11.1 °C 2.8 °C 1006.1 hPa SSO 7.8 km/h 11.1 km/h 57% 0.0 mm
10:34 11.2 °C 3 °C 1006.1 hPa Sur 8.4 km/h 11.1 km/h 57% 0.0 mm
10:39 11.4 °C 2.8 °C 1006.1 hPa Sur 7.8 km/h 11.9 km/h 55.3% 0.0 mm
10:44 11.6 °C 2.8 °C 1006.0 hPa SSO 6.9 km/h 11.9 km/h 54.8% 0.0 mm
10:49 11.8 °C 2.8 °C 1006.0 hPa Sur 6.9 km/h 11.1 km/h 54% 0.0 mm
10:54 12 °C 3.2 °C 1006.0 hPa SE 6.9 km/h 11.9 km/h 54.9% 0.0 mm
10:59 12.2 °C 3.2 °C 1006.0 hPa SSE 7.5 km/h 13 km/h 54.2% 0.0 mm
11:04 12.2 °C 3.1 °C 1006.0 hPa SSE 8.4 km/h 11.9 km/h 53.6% 0.0 mm
11:09 12.3 °C 3 °C 1006.0 hPa SSE 8.1 km/h 11.1 km/h 53.1% 0.0 mm
11:14 12.6 °C 3.1 °C 1005.9 hPa SE 7.6 km/h 11.1 km/h 52.3% 0.0 mm
11:19 12.8 °C 3.1 °C 1005.9 hPa SSE 7.2 km/h 13 km/h 51.6% 0.0 mm
11:24 13.1 °C 3 °C 1005.9 hPa SSE 6.4 km/h 11.9 km/h 50.4% 0.0 mm
11:29 13.3 °C 2.6 °C 1005.8 hPa Sur 6.6 km/h 14.8 km/h 48.3% 0.0 mm
11:34 13.5 °C 2.7 °C 1005.8 hPa Sur 6.9 km/h 15.6 km/h 48.1% 0.0 mm
11:39 13.5 °C 2.7 °C 1005.8 hPa SSO 7.4 km/h 14.8 km/h 48% 0.0 mm
11:44 13.6 °C 2.8 °C 1005.6 hPa Sur 8.4 km/h 11.1 km/h 48% 0.0 mm
11:49 13.7 °C 2.9 °C 1005.6 hPa SSO 8.4 km/h 13.7 km/h 48% 0.0 mm
11:54 13.7 °C 3 °C 1005.6 hPa Sur 8.4 km/h 12.2 km/h 48.4% 0.0 mm
11:59 13.9 °C 2.8 °C 1005.2 hPa SSO 8.4 km/h 13 km/h 46.9% 0.0 mm
12:04 14.2 °C 2.9 °C 1005.2 hPa Sur 8.4 km/h 13 km/h 46.8% 0.0 mm
12:09 14.4 °C 2.9 °C 1005.2 hPa SSO 7.9 km/h 13.7 km/h 46% 0.0 mm
12:14 14.7 °C 2.8 °C 1005.0 hPa SSO 6.9 km/h 13 km/h 45% 0.0 mm
12:19 14.8 °C 2.9 °C 1005.0 hPa SSO 7.6 km/h 18.5 km/h 44.8% 0.0 mm
12:24 15.1 °C 2.7 °C 1005.0 hPa SSO 8.7 km/h 16.7 km/h 43.4% 0.0 mm
12:29 15.3 °C 2.4 °C 1004.6 hPa SSO 9.8 km/h 25.9 km/h 41.6% 0.0 mm
12:34 15.7 °C 2.1 °C 1004.6 hPa SSO 11.9 km/h 22.2 km/h 40% 0.0 mm
12:39 15.8 °C 2 °C 1004.6 hPa SO 12.5 km/h 24.1 km/h 39.4% 0.0 mm
12:44 15.9 °C 2 °C 1004.2 hPa OSO 13.7 km/h 16.7 km/h 39% 0.0 mm
12:49 16.2 °C 2.1 °C 1004.2 hPa SO 12.8 km/h 24.1 km/h 38.5% 0.0 mm
12:54 16.4 °C 1.6 °C 1004.2 hPa SO 11.1 km/h 22 km/h 37% 0.0 mm
12:59 16.4 °C 1.6 °C 1003.9 hPa SO 11.1 km/h 22.5 km/h 36.8% 0.0 mm
13:04 16.5 °C 1.6 °C 1003.9 hPa OSO 11.1 km/h 27.4 km/h 36.7% 0.0 mm
13:09 16.4 °C 1.3 °C 1003.9 hPa OSO 12 km/h 29.6 km/h 36% 0.0 mm
13:14 16.4 °C 1.3 °C 1003.7 hPa SO 13.7 km/h 27.8 km/h 36.2% 0.0 mm
13:19 16.4 °C 1.3 °C 1003.7 hPa SO 14.5 km/h 27.8 km/h 36% 0.0 mm
13:24 16.3 °C 1.3 °C 1003.7 hPa SO 16.1 km/h 26.2 km/h 36.3% 0.0 mm
13:29 16.3 °C 1.5 °C 1003.6 hPa SO 15.9 km/h 29.6 km/h 37% 0.0 mm
13:34 16.2 °C 1.5 °C 1003.6 hPa SO 15.6 km/h 20.4 km/h 37% 0.0 mm
13:39 16.4 °C 1.6 °C 1003.6 hPa OSO 14 km/h 23.3 km/h 37% 0.0 mm
13:44 16.4 °C 1.7 °C 1003.3 hPa SSO 11.1 km/h 24.1 km/h 37.1% 0.0 mm
13:49 16.4 °C 1.7 °C 1003.3 hPa SO 12.1 km/h 24.5 km/h 37% 0.0 mm
13:54 16.4 °C 1.7 °C 1003.3 hPa OSO 14 km/h 24.1 km/h 37% 0.0 mm
13:59 16.5 °C 1.7 °C 1003.0 hPa OSO 13.6 km/h 27.8 km/h 37% 0.0 mm
14:04 16.5 °C 1.8 °C 1003.0 hPa SO 13 km/h 28.2 km/h 37% 0.0 mm
14:09 16.7 °C 1.9 °C 1003.0 hPa OSO 13 km/h 24.1 km/h 37% 0.0 mm
14:14 16.7 °C 2 °C 1002.8 hPa SO 13 km/h 24.5 km/h 37% 0.0 mm
14:19 16.9 °C 2.1 °C 1002.8 hPa SO 12.3 km/h 16.7 km/h 37% 0.0 mm
14:24 17.1 °C 1.9 °C 1002.8 hPa SO 11.1 km/h 20.9 km/h 36.2% 0.0 mm
14:29 17.1 °C 2.1 °C 1002.6 hPa SO 10.5 km/h 20.4 km/h 36.5% 0.0 mm
14:34 17.2 °C 2 °C 1002.6 hPa SSO 9.5 km/h 19 km/h 36% 0.0 mm
14:39 17.2 °C 2 °C 1002.6 hPa SSO 10.9 km/h 24.1 km/h 36% 0.0 mm
14:44 17.1 °C 2.1 °C 1002.5 hPa SSO 13.7 km/h 13.7 km/h 36.5% 0.0 mm
14:49 17.1 °C 2.2 °C 1002.5 hPa SO 11.7 km/h 15.6 km/h 36.8% 0.0 mm
14:54 17.3 °C 2 °C 1002.5 hPa OSO 8.4 km/h 23.7 km/h 35.9% 0.0 mm
14:59 17.5 °C 1.8 °C 1002.4 hPa Oeste 9.9 km/h 24.1 km/h 34.9% 0.0 mm
15:04 17.6 °C 1.6 °C 1002.4 hPa Oeste 12.2 km/h 33.3 km/h 34.2% 0.0 mm
15:09 17.4 °C 1 °C 1002.6 hPa Oeste 12.9 km/h 31.5 km/h 33% 0.0 mm
15:14 17.4 °C 1.2 °C 1002.6 hPa ONO 14 km/h 29.6 km/h 33.5% 0.0 mm
15:19 17.2 °C 1.8 °C 1002.6 hPa ONO 14.3 km/h 33.5 km/h 35.6% 0.0 mm
15:24 16.7 °C 1.9 °C 1002.8 hPa ONO 14.8 km/h 33.3 km/h 36.8% 0.0 mm
15:29 16.2 °C 1.9 °C 1002.8 hPa ONO 16.3 km/h 33.3 km/h 38% 0.0 mm
15:34 16 °C 1.9 °C 1002.8 hPa ONO 19 km/h 42.6 km/h 38.7% 0.0 mm
15:39 15.9 °C 1.9 °C 1002.9 hPa ONO 20.2 km/h 40.7 km/h 39% 0.0 mm
15:44 15.9 °C 2 °C 1002.9 hPa ONO 22.5 km/h 40.7 km/h 39.3% 0.0 mm
15:49 16 °C 2 °C 1002.9 hPa ONO 22.9 km/h 40.7 km/h 39% 0.0 mm
15:54 15.8 °C 1.9 °C 1003.0 hPa ONO 23.7 km/h 43.1 km/h 39% 0.0 mm
15:59 15.6 °C 1.8 °C 1003.0 hPa ONO 23.7 km/h 42.6 km/h 39.6% 0.0 mm
16:04 15.3 °C 1.8 °C 1003.0 hPa ONO 23.7 km/h 46.3 km/h 40% 0.0 mm
16:09 15.2 °C 1.9 °C 1003.2 hPa ONO 23.7 km/h 37 km/h 40.6% 0.0 mm
16:14 15.1 °C 1.7 °C 1003.2 hPa NO 23.7 km/h 46.8 km/h 40.2% 0.0 mm
16:19 15 °C 1.8 °C 1003.2 hPa NO 23.7 km/h 35.2 km/h 40.9% 0.0 mm
16:24 14.8 °C 1.7 °C 1003.5 hPa ONO 23.7 km/h 38.9 km/h 41% 0.0 mm
16:29 14.8 °C 1.9 °C 1003.5 hPa ONO 23 km/h 33.3 km/h 41.8% 0.0 mm
16:34 14.9 °C 2.1 °C 1003.5 hPa ONO 21.7 km/h 37 km/h 42% 0.0 mm
16:39 14.9 °C 2.1 °C 1003.7 hPa Oeste 21.1 km/h 27.8 km/h 42% 0.0 mm
16:44 15.1 °C 2.2 °C 1003.7 hPa Oeste 19.8 km/h 28.6 km/h 42% 0.0 mm
16:49 15.2 °C 2.1 °C 1003.7 hPa Oeste 18.6 km/h 34.3 km/h 41.3% 0.0 mm
16:54 15.1 °C 2 °C 1004.1 hPa Oeste 16.4 km/h 28.2 km/h 41% 0.0 mm
16:59 15.1 °C 1.9 °C 1004.1 hPa Oeste 16.3 km/h 33.3 km/h 41.1% 0.0 mm
17:04 14.9 °C 2.1 °C 1004.1 hPa Oeste 16.1 km/h 35.2 km/h 42% 0.0 mm
17:09 14.7 °C 2.2 °C 1005.0 hPa ONO 17.5 km/h 50.1 km/h 42.7% 0.0 mm
17:14 13.6 °C 2.5 °C 1005.0 hPa ONO 20.1 km/h 62.9 km/h 46.9% 0.0 mm
17:19 12.4 °C 2.6 °C 1005.0 hPa ONO 26.6 km/h 57.9 km/h 51.3% 0.0 mm
17:24 11.9 °C 2.6 °C 1005.6 hPa ONO 37.8 km/h 55.5 km/h 52.7% 0.0 mm
17:29 11.7 °C 2.6 °C 1005.6 hPa ONO 36.7 km/h 50.1 km/h 53.9% 0.0 mm
17:34 11.5 °C 2.6 °C 1005.6 hPa NO 34.6 km/h 42.6 km/h 54.4% 0.0 mm
17:39 11.3 °C 2.6 °C 1005.7 hPa ONO 30.6 km/h 39.6 km/h 55% 0.0 mm
17:44 11.1 °C 2.6 °C 1005.7 hPa ONO 23.3 km/h 42.6 km/h 55.6% 0.0 mm
17:49 10.8 °C 2.6 °C 1005.7 hPa Oeste 24.1 km/h 41.2 km/h 57.2% 0.0 mm
17:54 10.5 °C 2.6 °C 1005.9 hPa ONO 25.6 km/h 44.4 km/h 58.4% 0.0 mm
17:59 10.3 °C 2.7 °C 1005.9 hPa Oeste 25.6 km/h 40.7 km/h 59.4% 0.0 mm
18:04 10.2 °C 2.8 °C 1005.9 hPa Oeste 25.6 km/h 33.3 km/h 60% 0.0 mm
18:09 10.2 °C 2.8 °C 1006.1 hPa Oeste 22.3 km/h 27.8 km/h 60% 0.0 mm
18:14 10.2 °C 2.5 °C 1006.1 hPa Oeste 16.4 km/h 27.8 km/h 58.8% 0.0 mm
18:19 10.3 °C 2.4 °C 1006.1 hPa Oeste 16.3 km/h 22.5 km/h 58% 0.0 mm
18:24 10.3 °C 2.2 °C 1006.6 hPa Oeste 16.1 km/h 22.2 km/h 57.1% 0.0 mm
18:29 10.3 °C 2.2 °C 1006.6 hPa Oeste 15.2 km/h 22.2 km/h 57% 0.0 mm
18:34 10.3 °C 2.2 °C 1006.6 hPa Oeste 13.7 km/h 24.1 km/h 57% 0.0 mm
18:39 10.3 °C 2.2 °C 1006.9 hPa Oeste 13.7 km/h 24.1 km/h 57% 0.0 mm
18:44 10.2 °C 2.1 °C 1006.9 hPa OSO 13.7 km/h 19 km/h 57% 0.0 mm
18:49 10.3 °C 1.9 °C 1006.9 hPa OSO 12.5 km/h 27.8 km/h 56.1% 0.0 mm
18:54 10.4 °C 1.7 °C 1007.1 hPa SO 10.3 km/h 19 km/h 55.1% 0.0 mm
18:59 10.4 °C 1.9 °C 1007.1 hPa SSO 11 km/h 25.9 km/h 55.6% 0.0 mm
19:04 10.3 °C 1.5 °C 1007.1 hPa SO 12.2 km/h 26.2 km/h 54.2% 0.0 mm
19:09 10.3 °C 1.3 °C 1007.3 hPa SO 13.4 km/h 22.5 km/h 53.6% 0.0 mm
19:14 10.2 °C 1.2 °C 1007.3 hPa SSO 15.6 km/h 22.5 km/h 53.8% 0.0 mm
19:19 10.1 °C 1.4 °C 1007.3 hPa SSO 15.3 km/h 29.1 km/h 54.7% 0.0 mm
19:24 9.9 °C 1.4 °C 1007.3 hPa Sur 14.8 km/h 29.6 km/h 55.5% 0.0 mm
19:29 9.8 °C 1.5 °C 1007.3 hPa Sur 15.3 km/h 24.5 km/h 56% 0.0 mm
19:34 9.8 °C 1.4 °C 1007.3 hPa Sur 16.1 km/h 24.1 km/h 56% 0.0 mm
19:39 9.8 °C 1.4 °C 1007.6 hPa Sur 15 km/h 21.7 km/h 56% 0.0 mm
19:44 9.8 °C 1.3 °C 1007.6 hPa Sur 13 km/h 22.2 km/h 55.5% 0.0 mm
19:49 9.8 °C 1.2 °C 1007.6 hPa SSE 12.6 km/h 16.7 km/h 55% 0.0 mm
19:54 9.9 °C 1.1 °C 1007.6 hPa SSE 11.9 km/h 15.6 km/h 54.3% 0.0 mm
19:59 10.1 °C 0.9 °C 1007.4 hPa Sur 11.3 km/h 14.8 km/h 53.2% 0.0 mm
20:04 10.1 °C 0.9 °C 1007.4 hPa Sur 10.3 km/h 14.8 km/h 53% 0.0 mm
20:09 10.2 °C 1 °C 1007.4 hPa SO 9.7 km/h 15.6 km/h 52.7% 0.0 mm
20:14 10.2 °C 0.7 °C 1007.3 hPa OSO 8.7 km/h 20.4 km/h 51.7% 0.0 mm
20:19 10.3 °C 0.4 °C 1007.3 hPa Oeste 9 km/h 20.4 km/h 50.3% 0.0 mm
20:24 10.4 °C 0.3 °C 1007.5 hPa Oeste 9.5 km/h 28.2 km/h 49.5% 0.0 mm
20:29 10.6 °C 0.1 °C 1007.5 hPa Oeste 10.4 km/h 22.2 km/h 48.1% 0.0 mm
20:34 10.7 °C -0.1 °C 1007.5 hPa Oeste 12.2 km/h 28.2 km/h 47.1% 0.0 mm
20:39 10.8 °C -0.1 °C 1007.5 hPa Oeste 12.1 km/h 18.5 km/h 47% 0.0 mm
20:44 10.8 °C -0.1 °C 1007.5 hPa Oeste 11.9 km/h 16.7 km/h 47% 0.0 mm
20:49 10.8 °C -0.4 °C 1007.5 hPa Oeste 11 km/h 19 km/h 46% 0.0 mm
20:54 10.8 °C -0.4 °C 1007.7 hPa ONO 9.5 km/h 25.6 km/h 46% 0.0 mm
20:59 10.9 °C -0.6 °C 1007.7 hPa ONO 11.6 km/h 28.2 km/h 45.1% 0.0 mm
21:04 10.9 °C -0.6 °C 1007.7 hPa ONO 14.8 km/h 23.3 km/h 45% 0.0 mm
21:09 10.9 °C -0.6 °C 1007.7 hPa Oeste 14.2 km/h 24.1 km/h 45% 0.0 mm
21:14 10.9 °C -0.6 °C 1007.4 hPa ONO 13 km/h 19 km/h 45% 0.0 mm
21:19 10.9 °C -0.6 °C 1007.4 hPa ONO 12.6 km/h 24.1 km/h 45% 0.0 mm
21:24 10.9 °C -0.6 °C 1007.7 hPa Oeste 11.9 km/h 20.4 km/h 45% 0.0 mm
21:29 10.9 °C -0.6 °C 1007.7 hPa Oeste 12.5 km/h 20.4 km/h 45% 0.0 mm
21:34 10.9 °C -0.6 °C 1007.7 hPa Oeste 13.7 km/h 23.3 km/h 45% 0.0 mm
21:39 10.9 °C -0.6 °C 1007.8 hPa OSO 12.5 km/h 24.1 km/h 45% 0.0 mm
21:44 10.9 °C -0.6 °C 1007.8 hPa Oeste 10.3 km/h 19 km/h 45% 0.0 mm
21:49 10.9 °C -0.6 °C 1007.8 hPa Oeste 10.3 km/h 20.1 km/h 45% 0.0 mm
21:54 11 °C -0.7 °C 1008.0 hPa Oeste 10.3 km/h 24.1 km/h 44.3% 0.0 mm
21:59 11.1 °C -0.7 °C 1008.0 hPa OSO 11 km/h 30.6 km/h 44% 0.0 mm
22:04 11.1 °C -0.7 °C 1008.0 hPa Oeste 12.2 km/h 29.8 km/h 44% 0.0 mm
22:09 11.1 °C -0.7 °C 1008.0 hPa Oeste 13.4 km/h 24.5 km/h 44% 0.0 mm
22:14 11.1 °C -0.7 °C 1008.0 hPa ONO 15.6 km/h 20.4 km/h 44% 0.0 mm
22:19 11 °C -0.8 °C 1008.0 hPa ONO 13.7 km/h 18.5 km/h 44% 0.0 mm
22:24 10.9 °C -0.8 °C 1008.0 hPa Oeste 10 km/h 29.1 km/h 44.3% 0.0 mm
22:29 10.9 °C -0.8 °C 1007.9 hPa Oeste 11.3 km/h 29.6 km/h 44.1% 0.0 mm
22:34 11 °C -0.6 °C 1007.9 hPa Oeste 13.7 km/h 25.9 km/h 44.5% 0.0 mm
22:39 10.9 °C -0.6 °C 1007.9 hPa Oeste 13.7 km/h 23.3 km/h 45% 0.0 mm
22:44 10.9 °C -0.4 °C 1007.9 hPa Oeste 13.7 km/h 31.7 km/h 45.7% 0.0 mm
22:49 10.9 °C -0.3 °C 1007.9 hPa Oeste 14.4 km/h 33.3 km/h 46% 0.0 mm
22:54 10.9 °C -0.3 °C 1008.2 hPa ONO 15.6 km/h 31.5 km/h 46% 0.0 mm
22:59 10.8 °C -0.4 °C 1008.2 hPa Oeste 16.9 km/h 37 km/h 46% 0.0 mm
23:04 10.8 °C -0.4 °C 1008.2 hPa Oeste 19 km/h 35.9 km/h 46% 0.0 mm
23:09 10.9 °C -0.5 °C 1008.3 hPa Oeste 19.7 km/h 35.9 km/h 45.6% 0.0 mm
23:14 10.8 °C -0.7 °C 1008.3 hPa Oeste 20.9 km/h 29.6 km/h 45% 0.0 mm
23:19 10.8 °C -0.7 °C 1008.3 hPa Oeste 20 km/h 33.3 km/h 45% 0.0 mm
23:24 10.8 °C -0.7 °C 1008.5 hPa Oeste 18.3 km/h 39.6 km/h 45% 0.0 mm
23:29 10.8 °C -0.7 °C 1008.5 hPa Oeste 19.8 km/h 38.9 km/h 45% 0.0 mm
23:34 10.7 °C -0.8 °C 1008.5 hPa Oeste 22.5 km/h 48.1 km/h 45% 0.0 mm
23:39 10.7 °C -0.8 °C 1008.5 hPa Oeste 23.5 km/h 37.8 km/h 45% 0.0 mm
23:44 10.6 °C -0.6 °C 1008.3 hPa Oeste 25.1 km/h 35.9 km/h 45.8% 0.0 mm
23:49 10.6 °C -0.8 °C 1008.3 hPa Oeste 24.2 km/h 44.4 km/h 45.2% 0.0 mm
23:54 10.6 °C -0.8 °C 1008.5 hPa Oeste 22.5 km/h 38.9 km/h 45% 0.0 mm
23:59 10.4 °C -1 °C 1008.5 hPa Oeste 23.3 km/h 38.9 km/h 45% 0.0 mm
Murcia-Puente Tocinos, Espa?a
Compliments of Weather Underground - 3 mb

La estación de MeteoMurcia.com, publica sus datos en los siguientes proyectos:

Weather Underground PWS IMURCIAP2 Meteoclimatic www.awekas.at

W3Counter
Web Analytics